TimeMST,TemperatureF,Dew PointF,Humidity,Sea Level PressureIn,VisibilityMPH,Wind Direction,Wind SpeedMPH,Gust SpeedMPH,PrecipitationIn,Events,Conditions,WindDirDegrees,DateUTC
12:53 AM,30.0,27.0,88,29.99,10.0,Calm,Calm,-,N/A,,Clear,0,2013-02-06 07:53:00
1:53 AM,28.4,26.6,93,29.97,8.0,Calm,Calm,-,N/A,,Clear,0,2013-02-06 08:53:00
2:53 AM,28.0,26.1,92,29.97,10.0,ENE,4.6,-,N/A,,Clear,70,2013-02-06 09:53:00
3:53 AM,28.0,24.1,85,29.95,10.0,East,4.6,-,N/A,,Clear,90,2013-02-06 10:53:00
4:53 AM,26.6,24.8,93,29.96,9.0,NW,3.5,-,N/A,,Clear,320,2013-02-06 11:53:00
5:53 AM,26.6,26.6,100,29.96,10.0,East,6.9,-,N/A,,Clear,80,2013-02-06 12:53:00
6:53 AM,27.0,25.0,92,30.00,10.0,Calm,Calm,-,N/A,,Clear,0,2013-02-06 13:53:00
7:53 AM,28.9,26.1,89,29.99,10.0,Calm,Calm,-,N/A,,Scattered Clouds,0,2013-02-06 14:53:00
8:53 AM,30.9,27.0,85,30.01,10.0,ESE,4.6,-,N/A,,Mostly Cloudy,120,2013-02-06 15:53:00
9:53 AM,34.0,28.0,79,29.97,10.0,SSW,6.9,-,N/A,,Mostly Cloudy,210,2013-02-06 16:53:00
10:53 AM,36.0,28.9,76,29.99,10.0,North,5.8,-,N/A,,Clear,10,2013-02-06 17:53:00
11:53 AM,36.0,28.9,76,29.99,10.0,WNW,3.5,-,N/A,,Scattered Clouds,300,2013-02-06 18:53:00
12:53 PM,37.9,30.0,73,29.98,10.0,Calm,Calm,-,N/A,,Mostly Cloudy,0,2013-02-06 19:53:00
1:53 PM,41.0,28.0,60,29.96,10.0,Calm,Calm,-,N/A,,Overcast,0,2013-02-06 20:53:00
2:53 PM,44.1,28.9,55,29.96,10.0,Variable,3.5,-,N/A,,Mostly Cloudy,0,2013-02-06 21:53:00
3:53 PM,44.1,30.9,60,29.98,10.0,WNW,6.9,-,N/A,,Mostly Cloudy,300,2013-02-06 22:53:00
4:53 PM,42.1,34.0,73,30.01,10.0,NW,12.7,-,N/A,,Scattered Clouds,320,2013-02-06 23:53:00
5:53 PM,39.0,28.9,67,30.05,10.0,North,8.1,-,N/A,,Overcast,360,2013-02-07 00:53:00
6:53 PM,37.0,30.0,76,30.07,10.0,WNW,4.6,-,N/A,,Overcast,300,2013-02-07 01:53:00
7:53 PM,33.1,28.9,85,30.10,10.0,NW,5.8,-,N/A,,Clear,310,2013-02-07 02:53:00
8:53 PM,34.0,28.0,79,30.12,10.0,North,5.8,-,N/A,,Clear,360,2013-02-07 03:53:00
9:53 PM,30.9,28.0,89,30.12,10.0,WSW,5.8,-,N/A,,Clear,250,2013-02-07 04:53:00
10:53 PM,30.9,28.0,89,30.13,10.0,North,4.6,-,N/A,,Clear,360,2013-02-07 05:53:00
11:53 PM,30.0,28.0,92,30.14,10.0,SW,3.5,-,N/A,,Clear,230,2013-02-07 06:53:00